Time;durP1;ratioP1;P1;durP2;ratioP2;P2;SDS_P1;SDS_P2;PMS_P1;PMS_P2;Temp;Humidity;BMP_temperature;BMP_pressure;BME280_temperature;BME280_humidity;BME280_pressure;Samples;Min_cycle;Max_cycle;Signal;HPM_P1;HPM_P2
2021/08/10 00:01:18;;;;;;;;;5.00;5.00;;;;;23.52;52.00;98800.66;4931958;28;103503;-83
2021/08/10 00:03:45;;;;;;;;;3.67;3.67;;;;;23.51;51.90;98807.28;4916451;28;102016;-83
2021/08/10 00:06:13;;;;;;;;;4.67;4.67;;;;;23.51;52.01;98810.03;4915658;28;103486;-83
2021/08/10 00:08:43;;;;;;;;;6.00;5.33;;;;;23.50;52.08;98803.72;4942216;28;103206;-82
2021/08/10 00:11:19;;;;;;;;;7.00;6.00;;;;;23.50;51.77;98805.66;4915437;28;106167;-82
2021/08/10 00:13:52;;;;;;;;;4.00;4.00;;;;;23.48;51.80;98805.91;4936283;28;102123;-82
2021/08/10 00:16:29;;;;;;;;;4.33;4.33;;;;;23.49;51.91;98802.06;4957756;28;102502;-82
2021/08/10 00:19:06;;;;;;;;;5.67;5.00;;;;;23.50;51.91;98802.88;4922348;28;102633;-83
2021/08/10 00:21:38;;;;;;;;;4.00;4.00;;;;;23.48;51.56;98800.41;4921161;28;102542;-82
2021/08/10 00:24:06;;;;;;;;;5.67;5.00;;;;;23.47;51.78;98808.94;4926808;28;101975;-83
2021/08/10 00:26:42;;;;;;;;;4.00;3.67;;;;;23.47;51.62;98803.44;4906682;28;107262;-83
2021/08/10 00:29:18;;;;;;;;;4.00;4.00;;;;;23.42;51.66;98789.59;4905833;28;101794;-83
2021/08/10 00:31:51;;;;;;;;;6.00;6.00;;;;;23.46;51.80;98790.75;4893611;28;103110;-82
2021/08/10 00:34:29;;;;;;;;;4.67;4.67;;;;;23.45;51.82;98783.56;4905744;28;101916;-82
2021/08/10 00:37:06;;;;;;;;;4.33;4.33;;;;;23.43;51.59;98777.47;4895456;28;102981;-82
2021/08/10 00:39:39;;;;;;;;;6.00;4.33;;;;;23.44;51.71;98781.91;4942643;28;102060;-82
2021/08/10 00:42:10;;;;;;;;;5.67;5.33;;;;;23.43;51.74;98796.78;4915633;28;103151;-83
2021/08/10 00:44:38;;;;;;;;;5.33;5.33;;;;;23.44;51.59;98792.97;4911092;28;102824;-82
2021/08/10 00:47:05;;;;;;;;;5.00;5.00;;;;;23.43;51.48;98794.84;4907928;28;103387;-83
2021/08/10 00:49:32;;;;;;;;;5.00;5.00;;;;;23.43;51.43;98808.66;4914947;28;102158;-83
2021/08/10 00:51:59;;;;;;;;;4.33;4.00;;;;;23.45;51.54;98822.22;4921587;28;102125;-82
2021/08/10 00:54:27;;;;;;;;;5.00;4.00;;;;;23.43;51.71;98811.41;4910326;28;102231;-81
2021/08/10 00:56:54;;;;;;;;;5.67;5.67;;;;;23.42;51.61;98814.44;4908944;28;103163;-83
2021/08/10 00:59:21;;;;;;;;;8.00;5.00;;;;;23.42;51.58;98811.69;4912088;28;101905;-82
2021/08/10 01:01:48;;;;;;;;;4.00;4.00;;;;;23.38;51.27;98805.91;4908259;28;103611;-82
2021/08/10 01:04:16;;;;;;;;;6.33;5.67;;;;;23.41;51.41;98799.84;4855141;28;102834;-83
2021/08/10 01:07:04;;;;;;;;;5.33;4.67;;;;;23.39;51.51;98791.00;4879741;28;103408;-82
2021/08/10 01:09:57;;;;;;;;;6.00;5.00;;;;;23.38;51.50;98783.00;4919804;28;102126;-82
2021/08/10 01:13:04;;;;;;;;;5.00;4.67;;;;;23.38;51.68;98781.06;4856556;28;103028;-82
2021/08/10 01:15:48;;;;;;;;;5.00;4.33;;;;;23.37;51.63;98786.88;4852189;28;101838;-82
2021/08/10 01:18:32;;;;;;;;;6.00;5.67;;;;;23.35;51.40;98800.13;4857630;28;106877;-82
2021/08/10 01:21:17;;;;;;;;;6.00;5.67;;;;;23.37;51.53;98798.72;4913261;28;101906;-82
2021/08/10 01:23:48;;;;;;;;;6.00;5.00;;;;;23.38;51.53;98796.78;4918899;28;103046;-82
2021/08/10 01:26:41;;;;;;;;;5.67;5.33;;;;;23.39;51.54;98801.22;4921370;28;102344;-83
2021/08/10 01:29:22;;;;;;;;;5.00;4.67;;;;;23.37;51.38;98786.88;4926640;28;108214;-83
2021/08/10 01:31:59;;;;;;;;;3.33;3.33;;;;;23.37;51.22;98786.88;4899084;28;101833;-82
2021/08/10 01:34:41;;;;;;;;;5.00;4.33;;;;;23.34;51.35;98787.41;4904282;28;102845;-82
2021/08/10 01:37:22;;;;;;;;;6.00;5.00;;;;;23.32;51.33;98779.44;4923151;28;102164;-82
2021/08/10 01:40:03;;;;;;;;;5.00;4.00;;;;;23.27;51.34;98784.13;4880972;28;108248;-83
2021/08/10 01:42:32;;;;;;;;;6.00;5.00;;;;;23.34;51.38;98798.47;4940616;28;102327;-82
2021/08/10 01:45:04;;;;;;;;;5.00;5.00;;;;;23.33;50.94;98799.56;4916941;28;102372;-83
2021/08/10 01:47:38;;;;;;;;;3.67;3.67;;;;;23.33;51.00;98796.78;4932657;28;102174;-83
2021/08/10 01:50:11;;;;;;;;;5.67;5.00;;;;;23.32;51.31;98801.53;4924804;28;107762;-82
2021/08/10 01:52:38;;;;;;;;;6.00;5.00;;;;;23.33;51.24;98802.31;4934222;28;102039;-83
2021/08/10 01:55:05;;;;;;;;;4.67;4.67;;;;;23.33;51.15;98799.56;4952467;28;101934;-82
2021/08/10 01:57:32;;;;;;;;;4.33;4.00;;;;;23.32;51.38;98797.94;4939382;28;105244;-83
2021/08/10 02:00:00;;;;;;;;;3.00;3.00;;;;;23.32;51.29;98808.97;4918086;28;103445;-83
2021/08/10 02:02:27;;;;;;;;;5.33;4.33;;;;;23.32;51.36;98800.69;4919813;28;102354;-82
2021/08/10 02:04:54;;;;;;;;;5.33;5.00;;;;;23.21;51.11;98777.78;4902280;28;102007;-83
2021/08/10 02:07:22;;;;;;;;;3.33;3.33;;;;;23.29;51.34;98793.78;4897829;28;102143;-82
2021/08/10 02:09:49;;;;;;;;;4.33;4.33;;;;;23.28;51.41;98794.06;4937324;28;103455;-82
2021/08/10 02:12:16;;;;;;;;;5.67;5.33;;;;;23.29;51.28;98785.50;4901515;28;102019;-83
2021/08/10 02:14:46;;;;;;;;;4.00;4.00;;;;;23.29;51.30;98790.19;4923466;28;102413;-82
2021/08/10 02:17:15;;;;;;;;;5.00;5.00;;;;;23.29;51.21;98795.69;4940456;28;102294;-83
2021/08/10 02:19:43;;;;;;;;;4.00;4.00;;;;;23.29;51.08;98801.22;4913995;28;103399;-82
2021/08/10 02:22:11;;;;;;;;;5.00;4.00;;;;;23.29;51.30;98806.75;4916300;28;105529;-82
2021/08/10 02:24:59;;;;;;;;;3.00;3.00;;;;;23.27;50.96;98798.75;4928748;28;102167;-83
2021/08/10 02:27:38;;;;;;;;;5.33;4.67;;;;;23.28;51.02;98799.59;4869894;28;102371;-83
2021/08/10 02:30:12;;;;;;;;;4.00;4.00;;;;;23.26;51.25;98785.22;4912455;28;103409;-83
2021/08/10 02:32:39;;;;;;;;;3.33;3.33;;;;;23.27;50.89;98781.38;4926588;28;102002;-82
2021/08/10 02:35:07;;;;;;;;;3.67;3.67;;;;;23.26;51.15;98782.47;4924346;28;101970;-82
2021/08/10 02:37:34;;;;;;;;;4.00;4.00;;;;;23.25;50.90;98778.06;4914155;28;102248;-82
2021/08/10 02:40:06;;;;;;;;;4.00;4.00;;;;;23.23;51.01;98775.59;4943005;28;103615;-82
2021/08/10 02:42:33;;;;;;;;;5.33;4.00;;;;;23.23;51.04;98777.53;4938359;28;101715;-83
2021/08/10 02:45:01;;;;;;;;;4.67;3.67;;;;;23.23;51.00;98775.59;4919858;28;102232;-82
2021/08/10 02:47:28;;;;;;;;;6.00;4.00;;;;;23.23;50.86;98791.31;4928594;28;101896;-82
2021/08/10 02:49:55;;;;;;;;;4.67;3.67;;;;;23.22;50.91;98790.50;4925238;28;103596;-82
2021/08/10 02:52:22;;;;;;;;;4.00;3.00;;;;;23.22;50.78;98800.69;4938833;28;101706;-82
2021/08/10 02:54:49;;;;;;;;;6.00;4.00;;;;;23.21;50.80;98805.38;4929824;28;102256;-82
2021/08/10 02:57:35;;;;;;;;;3.67;3.67;;;;;23.20;51.00;98797.38;4928949;28;102391;-83
2021/08/10 03:00:11;;;;;;;;;3.00;3.00;;;;;23.19;50.83;98784.72;4910851;28;103358;-83
2021/08/10 03:02:45;;;;;;;;;4.00;3.67;;;;;23.19;50.87;98785.50;4927356;28;103104;-82
2021/08/10 03:05:15;;;;;;;;;4.33;4.00;;;;;23.18;50.86;98777.53;4911325;28;102783;-82
2021/08/10 03:07:58;;;;;;;;;5.00;5.00;;;;;23.19;50.92;98768.16;4905661;28;101987;-82
2021/08/10 03:10:29;;;;;;;;;5.67;4.67;;;;;23.19;50.97;98768.16;4852358;28;107965;-82
2021/08/10 03:12:56;;;;;;;;;2.00;2.00;;;;;23.19;50.73;98776.44;4939002;28;102099;-83
2021/08/10 03:15:25;;;;;;;;;6.33;4.00;;;;;23.04;50.94;98758.78;4913483;28;101913;-83
2021/08/10 03:17:54;;;;;;;;;4.33;4.33;;;;;23.14;50.98;98774.50;4941743;28;103399;-82
2021/08/10 03:20:21;;;;;;;;;6.00;6.00;;;;;23.14;51.09;98767.03;4927917;28;103432;-82
2021/08/10 03:22:48;;;;;;;;;3.33;3.33;;;;;23.14;50.75;98766.22;4913913;28;102875;-82
2021/08/10 03:25:17;;;;;;;;;5.00;5.00;;;;;23.13;50.77;98759.06;4944187;28;101905;-82
2021/08/10 03:27:44;;;;;;;;;5.67;4.67;;;;;23.13;51.01;98756.28;4926890;28;102115;-83
2021/08/10 03:30:11;;;;;;;;;4.00;4.00;;;;;23.12;50.87;98744.44;4917943;28;108098;-82
2021/08/10 03:32:39;;;;;;;;;5.67;5.00;;;;;23.11;50.84;98756.56;4932830;28;102195;-82
2021/08/10 03:35:07;;;;;;;;;5.00;4.33;;;;;23.11;50.87;98762.09;4924929;28;103155;-82
2021/08/10 03:37:34;;;;;;;;;4.33;4.00;;;;;23.10;50.69;98757.66;4919277;28;102549;-82
2021/08/10 03:40:01;;;;;;;;;4.33;4.33;;;;;23.10;50.91;98765.94;4921269;28;103753;-82
2021/08/10 03:42:28;;;;;;;;;4.00;4.00;;;;;23.11;50.87;98764.00;4918328;28;101854;-82
2021/08/10 03:44:56;;;;;;;;;4.00;4.00;;;;;23.09;50.76;98761.53;4908759;28;102792;-82
2021/08/10 03:47:26;;;;;;;;;4.00;3.67;;;;;22.96;50.92;98748.31;4925865;28;101925;-83
2021/08/10 03:49:53;;;;;;;;;8.33;6.67;;;;;23.08;50.57;98759.88;4909190;28;103357;-82
2021/08/10 03:52:21;;;;;;;;;5.00;5.00;;;;;23.07;50.69;98758.22;4933700;28;101720;-82
2021/08/10 03:54:48;;;;;;;;;4.00;4.00;;;;;23.07;50.58;98766.50;4912972;28;102515;-82
2021/08/10 03:57:19;;;;;;;;;4.00;4.00;;;;;23.05;50.64;98757.69;4920165;28;110315;-82
2021/08/10 03:59:49;;;;;;;;;2.67;2.67;;;;;23.03;50.65;98754.38;4931993;28;107957;-82
2021/08/10 04:02:16;;;;;;;;;5.00;5.00;;;;;23.03;50.47;98748.03;4942942;28;102717;-83
2021/08/10 04:04:44;;;;;;;;;4.00;4.00;;;;;23.04;50.53;98755.22;4920972;28;102174;-82
2021/08/10 04:07:11;;;;;;;;;4.67;4.00;;;;;23.02;50.45;98749.97;4943630;28;101799;-82
2021/08/10 04:09:39;;;;;;;;;5.00;4.67;;;;;23.01;50.58;98762.09;4932846;28;103918;-82
2021/08/10 04:12:09;;;;;;;;;5.00;4.67;;;;;23.02;50.47;98758.22;4933351;28;101862;-82
2021/08/10 04:14:39;;;;;;;;;4.33;3.00;;;;;23.01;50.61;98753.81;4928676;28;102003;-82
2021/08/10 04:17:06;;;;;;;;;4.67;4.67;;;;;23.01;50.25;98767.59;4924118;28;103022;-82
2021/08/10 04:19:35;;;;;;;;;4.67;4.00;;;;;23.01;50.48;98767.59;4913499;28;104732;-82
2021/08/10 04:22:03;;;;;;;;;5.00;5.00;;;;;23.00;50.59;98771.50;4925898;28;102906;-82
2021/08/10 04:24:30;;;;;;;;;4.67;4.67;;;;;22.99;50.66;98764.31;4916989;28;101905;-82
2021/08/10 04:26:58;;;;;;;;;3.67;3.33;;;;;22.99;50.37;98775.34;4917432;28;102097;-81
2021/08/10 04:29:25;;;;;;;;;4.00;4.00;;;;;22.99;50.31;98772.59;4918875;28;103347;-82
2021/08/10 04:31:52;;;;;;;;;6.00;6.00;;;;;22.99;50.60;98778.09;4915310;28;102209;-82
2021/08/10 04:34:19;;;;;;;;;4.00;4.00;;;;;22.99;50.50;98777.28;4918507;28;102161;-82
2021/08/10 04:36:46;;;;;;;;;4.67;4.33;;;;;22.98;50.39;98778.38;4917682;28;104059;-82
2021/08/10 04:39:13;;;;;;;;;2.00;2.00;;;;;22.96;50.45;98770.41;4918504;28;103375;-82
2021/08/10 04:41:40;;;;;;;;;6.67;6.67;;;;;22.96;50.47;98775.91;4925033;28;101883;-82
2021/08/10 04:44:10;;;;;;;;;5.00;4.00;;;;;22.94;50.27;98771.75;4922382;28;101710;-82
2021/08/10 04:46:37;;;;;;;;;2.33;2.00;;;;;22.96;50.24;98775.91;4919749;28;102711;-82
2021/08/10 04:49:05;;;;;;;;;4.00;3.33;;;;;22.94;50.36;98774.50;4918962;28;103462;-82
2021/08/10 04:51:32;;;;;;;;;5.67;5.33;;;;;22.94;50.21;98778.09;4921995;28;102030;-82
2021/08/10 04:53:59;;;;;;;;;5.67;5.00;;;;;22.93;50.43;98781.97;4918003;28;102968;-82
2021/08/10 04:56:26;;;;;;;;;6.00;5.00;;;;;22.93;50.41;98784.72;4921385;28;102043;-82
2021/08/10 04:58:53;;;;;;;;;6.00;5.00;;;;;22.92;50.17;98788.56;4917534;28;103765;-83
2021/08/10 05:01:20;;;;;;;;;5.00;5.00;;;;;22.92;50.29;98785.81;4916274;28;102110;-82
2021/08/10 05:03:48;;;;;;;;;5.67;5.67;;;;;22.92;50.42;98785.81;4917042;28;101904;-83
2021/08/10 05:06:15;;;;;;;;;5.33;5.33;;;;;22.92;50.25;98782.25;4905000;28;102843;-82
2021/08/10 05:08:42;;;;;;;;;7.33;5.33;;;;;22.91;50.28;98784.19;4920896;28;108328;-82
2021/08/10 05:11:10;;;;;;;;;5.33;5.33;;;;;22.91;50.19;98789.69;4915873;28;102113;-82
2021/08/10 05:13:38;;;;;;;;;7.33;5.33;;;;;22.91;50.17;98788.88;4911380;28;103227;-82
2021/08/10 05:16:05;;;;;;;;;3.00;3.00;;;;;22.90;50.10;98788.03;4916889;28;101747;-82
2021/08/10 05:18:32;;;;;;;;;5.33;5.33;;;;;22.84;50.15;98783.63;4916588;28;105162;-82
2021/08/10 05:21:00;;;;;;;;;6.33;5.00;;;;;22.89;50.17;98791.06;4925342;28;102756;-82
2021/08/10 05:23:27;;;;;;;;;7.67;5.33;;;;;22.87;50.30;98783.09;4930768;28;102109;-82
2021/08/10 05:25:54;;;;;;;;;6.00;5.33;;;;;22.88;50.21;98783.88;4929245;28;101995;-82
2021/08/10 05:28:21;;;;;;;;;6.00;5.00;;;;;22.88;50.13;98787.47;4922924;28;103642;-82
2021/08/10 05:30:48;;;;;;;;;5.00;5.00;;;;;22.87;50.02;98779.50;4934980;28;104061;-83
2021/08/10 05:33:15;;;;;;;;;7.00;6.33;;;;;22.86;50.11;98780.59;4926350;28;102145;-82
2021/08/10 05:35:43;;;;;;;;;5.33;5.33;;;;;22.85;50.01;98777.00;4922771;28;102234;-82
2021/08/10 05:38:10;;;;;;;;;6.00;6.00;;;;;22.83;50.03;98779.19;4929972;28;103432;-82
2021/08/10 05:40:38;;;;;;;;;6.00;6.00;;;;;22.84;49.97;98789.13;4929820;28;101689;-82
2021/08/10 05:43:05;;;;;;;;;5.33;5.33;;;;;22.84;50.15;98791.88;4930833;28;101802;-82
2021/08/10 05:45:32;;;;;;;;;5.33;5.00;;;;;22.84;49.81;98793.81;4941769;28;102115;-82
2021/08/10 05:48:00;;;;;;;;;6.00;6.00;;;;;22.84;49.87;98794.66;4921963;28;103463;-82
2021/08/10 05:50:27;;;;;;;;;5.00;5.00;;;;;22.84;49.99;98791.06;4939574;28;101986;-82
2021/08/10 05:52:54;;;;;;;;;8.00;7.00;;;;;22.83;49.80;98781.94;4938335;28;101908;-82
2021/08/10 05:55:22;;;;;;;;;6.00;5.67;;;;;22.84;49.86;98791.06;4926585;28;101817;-83
2021/08/10 05:57:50;;;;;;;;;3.00;3.00;;;;;22.84;49.84;98791.06;4934612;28;102978;-82
2021/08/10 06:00:17;;;;;;;;;4.00;4.00;;;;;22.82;49.84;98780.31;4933802;28;101893;-82
2021/08/10 06:02:45;;;;;;;;;6.33;5.00;;;;;22.84;49.96;98778.09;4922967;28;102216;-82
2021/08/10 06:05:12;;;;;;;;;7.33;4.67;;;;;22.83;49.80;98781.94;4926084;28;102196;-82
2021/08/10 06:07:42;;;;;;;;;5.33;4.67;;;;;22.83;49.98;98784.72;4917768;28;103577;-83
2021/08/10 06:10:09;;;;;;;;;5.00;5.00;;;;;22.84;50.17;98793.81;4926490;28;101933;-82
2021/08/10 06:12:36;;;;;;;;;5.33;5.33;;;;;22.84;50.06;98778.09;4922788;28;102290;-82
2021/08/10 06:15:04;;;;;;;;;4.33;4.00;;;;;22.85;50.14;98774.25;4927742;28;102256;-82
2021/08/10 06:17:32;;;;;;;;;7.67;6.00;;;;;22.85;50.01;98785.28;4913189;28;103397;-82
2021/08/10 06:20:00;;;;;;;;;4.33;4.00;;;;;22.84;50.00;98778.09;4922083;28;102311;-82
2021/08/10 06:22:28;;;;;;;;;5.33;4.67;;;;;22.84;50.04;98789.13;4905729;28;102230;-82
2021/08/10 06:24:55;;;;;;;;;5.33;5.33;;;;;22.83;50.27;98784.72;4904927;28;101964;-82
2021/08/10 06:27:23;;;;;;;;;4.67;4.67;;;;;22.84;50.17;98799.31;4910722;28;103501;-82
2021/08/10 06:29:50;;;;;;;;;6.33;5.00;;;;;22.84;50.17;98783.63;4914371;28;101728;-82
2021/08/10 06:32:17;;;;;;;;;9.00;6.67;;;;;22.85;50.20;98784.44;4914267;28;101777;-82
2021/08/10 06:34:44;;;;;;;;;6.67;5.67;;;;;22.86;50.28;98788.88;4915790;28;101985;-82
2021/08/10 06:37:11;;;;;;;;;5.00;5.00;;;;;22.85;50.34;98785.28;4918750;28;103415;-82
2021/08/10 06:39:38;;;;;;;;;0.00;0.00;;;;;22.86;50.41;98789.69;4908601;28;101705;-82
2021/08/10 06:42:05;;;;;;;;;6.00;4.33;;;;;22.88;50.33;98790.22;4915554;28;101983;-82
2021/08/10 06:44:34;;;;;;;;;5.00;5.00;;;;;22.87;50.35;98790.53;4913002;28;102398;-82
2021/08/10 06:47:01;;;;;;;;;5.67;5.00;;;;;22.88;50.37;98779.19;4904598;28;103363;-82
2021/08/10 06:49:28;;;;;;;;;5.00;5.00;;;;;22.90;50.49;98798.22;4909215;28;101680;-82
2021/08/10 06:51:55;;;;;;;;;5.00;5.00;;;;;22.91;50.44;98799.91;4911586;28;102675;-82
2021/08/10 06:54:22;;;;;;;;;4.00;4.00;;;;;22.91;50.53;98802.66;4912183;28;102329;-82
2021/08/10 06:56:50;;;;;;;;;4.67;3.67;;;;;22.91;50.70;98795.22;4914261;28;105625;-82
2021/08/10 06:59:17;;;;;;;;;5.33;4.67;;;;;22.92;50.63;98796.03;4908005;28;102109;-82
2021/08/10 07:01:44;;;;;;;;;6.33;6.00;;;;;22.93;50.69;98804.03;4919416;28;103775;-82
2021/08/10 07:04:12;;;;;;;;;5.33;4.33;;;;;22.94;50.66;98796.56;4911257;28;103056;-82
2021/08/10 07:06:39;;;;;;;;;7.67;6.33;;;;;22.95;50.71;98790.78;4915343;28;103444;-82
2021/08/10 07:09:06;;;;;;;;;7.33;6.33;;;;;22.95;50.73;98796.31;4909214;28;102055;-81
2021/08/10 07:11:34;;;;;;;;;5.00;4.00;;;;;22.96;50.70;98792.47;4911612;28;101770;-82
2021/08/10 07:14:01;;;;;;;;;4.00;4.00;;;;;22.95;50.88;98790.78;4912400;28;101804;-82
2021/08/10 07:16:29;;;;;;;;;5.33;5.00;;;;;22.98;50.80;98790.22;4918509;28;103581;-82
2021/08/10 07:18:57;;;;;;;;;5.00;4.00;;;;;22.99;51.00;98791.06;4923245;28;101745;-82
2021/08/10 07:21:25;;;;;;;;;5.67;5.00;;;;;23.00;50.84;98782.53;4908349;28;105411;-82
2021/08/10 07:23:52;;;;;;;;;4.00;4.00;;;;;23.00;50.87;98785.28;4940157;28;102010;-82
2021/08/10 07:26:19;;;;;;;;;6.00;6.00;;;;;23.00;50.84;98777.00;4926219;28;103804;-82
2021/08/10 07:28:46;;;;;;;;;4.33;4.33;;;;;23.00;50.88;98779.75;4935493;28;102269;-81
2021/08/10 07:31:13;;;;;;;;;5.00;5.00;;;;;23.02;50.87;98783.06;4933960;28;101964;-82
2021/08/10 07:33:40;;;;;;;;;6.67;5.67;;;;;22.94;50.87;98767.06;4899916;28;102267;-82
2021/08/10 07:36:08;;;;;;;;;5.67;5.00;;;;;23.03;50.69;98781.97;4934184;28;102753;-82
2021/08/10 07:38:35;;;;;;;;;6.33;5.33;;;;;23.04;50.90;98780.84;4930870;28;101942;-82
2021/08/10 07:41:02;;;;;;;;;6.00;6.00;;;;;23.03;50.81;98770.94;4931277;28;102625;-82
2021/08/10 07:43:29;;;;;;;;;5.67;5.00;;;;;22.99;50.89;98763.47;4930912;28;109596;-82
2021/08/10 07:45:56;;;;;;;;;6.00;6.00;;;;;23.07;50.90;98776.72;4925080;28;103442;-82
2021/08/10 07:48:23;;;;;;;;;6.00;6.00;;;;;23.07;50.91;98768.44;4937749;28;103288;-82
2021/08/10 07:50:51;;;;;;;;;4.00;2.67;;;;;23.07;51.04;98771.19;4947836;28;102584;-82
2021/08/10 07:53:20;;;;;;;;;4.33;4.33;;;;;23.08;50.90;98761.81;4937618;28;102241;-82
2021/08/10 07:55:48;;;;;;;;;5.00;5.00;;;;;23.09;50.87;98769.00;4927662;28;108120;-82
2021/08/10 07:58:15;;;;;;;;;5.00;5.00;;;;;23.10;50.84;98765.09;4945160;28;101626;-82
2021/08/10 08:00:42;;;;;;;;;6.33;5.00;;;;;23.10;51.00;98760.41;4915550;28;102347;-82
2021/08/10 08:03:12;;;;;;;;;5.00;5.00;;;;;23.11;51.00;98758.50;4923928;28;103685;-82
2021/08/10 08:05:40;;;;;;;;;7.00;7.00;;;;;23.12;51.09;98751.88;4915915;28;103487;-81
2021/08/10 08:08:07;;;;;;;;;5.00;3.00;;;;;23.12;51.21;98747.19;4914613;28;101986;-82
2021/08/10 08:10:34;;;;;;;;;3.33;3.33;;;;;23.13;51.17;98748.84;4924570;28;101705;-82
2021/08/10 08:13:21;;;;;;;;;6.33;5.00;;;;;23.14;51.32;98747.72;4932853;28;103830;-82
2021/08/10 08:15:48;;;;;;;;;4.67;4.67;;;;;23.16;50.91;98749.38;4945803;28;103422;-82
2021/08/10 08:18:16;;;;;;;;;4.00;4.00;;;;;23.16;51.08;98741.09;4928934;28;102293;-82
2021/08/10 08:20:47;;;;;;;;;7.67;5.00;;;;;23.17;51.29;98751.88;4930694;28;101998;-82
2021/08/10 08:23:15;;;;;;;;;5.33;4.33;;;;;23.17;51.30;98746.34;4926793;28;102199;-82
2021/08/10 08:25:42;;;;;;;;;5.00;4.33;;;;;23.19;51.13;98748.84;4922494;28;103610;-82
2021/08/10 08:28:10;;;;;;;;;4.00;4.00;;;;;23.16;51.15;98744.69;4929880;28;102545;-82
2021/08/10 08:30:40;;;;;;;;;5.00;5.00;;;;;23.09;51.27;98736.72;4914734;28;102070;-82
2021/08/10 08:33:08;;;;;;;;;6.00;5.33;;;;;23.20;51.34;98747.72;4940690;28;101920;-82
2021/08/10 08:35:37;;;;;;;;;5.00;5.00;;;;;23.21;51.29;98747.44;4931010;28;105330;-82
2021/08/10 08:38:05;;;;;;;;;4.33;4.00;;;;;23.23;51.23;98741.66;4919832;28;102849;-82
2021/08/10 08:40:36;;;;;;;;;5.33;5.00;;;;;23.23;51.40;98738.91;4924340;28;102005;-82
2021/08/10 08:43:03;;;;;;;;;6.33;6.00;;;;;23.24;51.31;98735.00;4933354;28;102017;-82
2021/08/10 08:45:30;;;;;;;;;6.00;5.00;;;;;23.24;51.37;98735.84;4923842;28;103563;-82
2021/08/10 08:47:58;;;;;;;;;5.33;5.00;;;;;23.24;51.44;98729.50;4924064;28;102428;-82
2021/08/10 08:50:26;;;;;;;;;4.00;4.00;;;;;23.26;51.15;98730.06;4925410;28;102067;-82
2021/08/10 08:52:55;;;;;;;;;5.67;4.00;;;;;23.26;51.37;98733.63;4913267;28;102813;-82
2021/08/10 08:55:22;;;;;;;;;5.33;5.33;;;;;23.28;51.45;98733.38;4945399;28;103411;-82
2021/08/10 08:57:49;;;;;;;;;7.00;5.67;;;;;23.29;51.43;98735.81;4936607;28;101968;-82
2021/08/10 09:00:17;;;;;;;;;4.00;4.00;;;;;23.29;51.50;98726.72;4911427;28;102233;-82
2021/08/10 09:02:45;;;;;;;;;5.00;5.00;;;;;23.31;51.58;98732.81;4931248;28;102730;-82
2021/08/10 09:05:12;;;;;;;;;4.67;4.67;;;;;23.31;51.52;98725.34;4937007;28;103393;-82
2021/08/10 09:07:40;;;;;;;;;7.00;5.00;;;;;23.31;51.34;98719.00;4915190;28;102156;-82
2021/08/10 09:10:09;;;;;;;;;4.00;4.00;;;;;23.34;51.61;98723.94;4934036;28;105641;-82
2021/08/10 09:12:58;;;;;;;;;4.67;4.00;;;;;23.35;51.57;98723.69;4918066;28;102106;-82
2021/08/10 09:15:31;;;;;;;;;5.33;4.33;;;;;23.36;51.53;98721.75;4922223;28;108016;-82
2021/08/10 09:18:24;;;;;;;;;3.00;3.00;;;;;23.37;51.55;98726.97;4936957;28;102010;-82
2021/08/10 09:21:00;;;;;;;;;3.00;3.00;;;;;23.39;51.30;98723.94;4941030;28;102197;-82
2021/08/10 09:23:37;;;;;;;;;4.33;3.67;;;;;23.38;51.40;98719.53;4899440;28;102122;-82
2021/08/10 09:26:04;;;;;;;;;4.00;3.33;;;;;23.39;51.63;98718.41;4930977;28;103342;-82
2021/08/10 09:28:33;;;;;;;;;5.00;4.67;;;;;23.40;51.66;98720.91;4938139;28;101950;-82
2021/08/10 09:31:33;;;;;;;;;6.00;5.00;;;;;23.41;51.49;98718.97;4935456;28;102022;-82
2021/08/10 09:34:03;;;;;;;;;6.33;4.33;;;;;23.42;51.65;98717.84;4859997;28;102198;-82
2021/08/10 09:36:31;;;;;;;;;4.00;4.00;;;;;23.43;51.56;98725.03;4941259;28;102267;-82
2021/08/10 09:38:58;;;;;;;;;4.00;4.00;;;;;23.45;51.42;98720.09;4946790;28;101947;-82
2021/08/10 09:41:26;;;;;;;;;5.00;4.67;;;;;23.45;51.66;98706.28;4917358;28;102025;-82
2021/08/10 09:44:17;;;;;;;;;4.00;4.00;;;;;23.46;51.69;98713.47;4917908;28;102052;-82
2021/08/10 09:46:48;;;;;;;;;3.00;3.00;;;;;23.46;51.50;98703.22;4873755;28;108314;-82
2021/08/10 09:49:17;;;;;;;;;4.00;4.00;;;;;23.47;51.49;98710.41;4922084;28;102920;-82
2021/08/10 09:51:48;;;;;;;;;4.00;4.00;;;;;23.49;51.73;98712.91;4938790;28;102697;-81
2021/08/10 09:54:16;;;;;;;;;4.00;4.00;;;;;23.50;51.45;98695.25;4944211;28;101916;-82
2021/08/10 09:56:52;;;;;;;;;6.67;5.00;;;;;23.50;51.64;98689.72;4933307;28;103795;-82
2021/08/10 09:59:27;;;;;;;;;5.00;4.00;;;;;23.51;51.62;98691.34;4933094;28;101965;-82
2021/08/10 10:02:01;;;;;;;;;3.33;3.33;;;;;23.52;51.77;98701.28;4933362;28;102126;-87
2021/08/10 10:04:29;;;;;;;;;4.00;4.00;;;;;23.53;51.71;98691.91;4919155;28;102453;-87
2021/08/10 10:06:58;;;;;;;;;7.00;4.67;;;;;23.54;51.68;98686.09;4911704;28;103546;-87
2021/08/10 10:09:26;;;;;;;;;4.00;4.00;;;;;23.54;51.67;98683.34;4936259;28;102071;-86
2021/08/10 10:11:54;;;;;;;;;4.00;3.67;;;;;23.56;51.74;98692.16;4933216;28;101799;-87
2021/08/10 10:14:22;;;;;;;;;4.67;4.67;;;;;23.56;51.40;98685.81;4926638;28;102053;-87
2021/08/10 10:16:51;;;;;;;;;3.00;3.00;;;;;23.59;51.61;98692.72;4913433;28;112156;-87
2021/08/10 10:19:20;;;;;;;;;5.33;4.00;;;;;23.59;51.77;98685.25;4903624;28;102214;-86
2021/08/10 10:21:48;;;;;;;;;4.00;4.00;;;;;23.61;51.52;98691.31;4919482;28;101541;-87
2021/08/10 10:24:16;;;;;;;;;4.67;4.67;;;;;23.61;51.85;98683.03;4914931;28;102954;-87
2021/08/10 10:26:45;;;;;;;;;4.00;4.00;;;;;23.62;51.44;98683.84;4907556;28;103409;-87
2021/08/10 10:29:13;;;;;;;;;3.00;2.00;;;;;23.62;51.76;98673.63;4908449;28;102226;-87
2021/08/10 10:31:40;;;;;;;;;4.33;4.33;;;;;23.65;51.67;98680.50;4911621;28;102157;-87
2021/08/10 10:34:12;;;;;;;;;4.00;4.00;;;;;23.66;51.77;98684.94;4905437;28;102096;-87
2021/08/10 10:36:42;;;;;;;;;4.33;4.00;;;;;23.66;51.56;98680.25;4901524;28;103848;-88
2021/08/10 10:39:09;;;;;;;;;5.00;4.00;;;;;23.67;51.47;98681.06;4901682;28;102209;-87
2021/08/10 10:41:37;;;;;;;;;4.00;4.00;;;;;23.64;51.72;98676.13;4906789;28;102450;-87
2021/08/10 10:44:07;;;;;;;;;5.00;4.00;;;;;23.69;51.59;98676.91;4909489;28;101826;-87
2021/08/10 10:46:35;;;;;;;;;5.00;4.67;;;;;23.70;51.63;98677.72;4914460;28;103391;-87
2021/08/10 10:49:08;;;;;;;;;5.67;5.00;;;;;23.71;51.54;98673.88;4902571;28;102055;-88
2021/08/10 10:51:40;;;;;;;;;3.00;3.00;;;;;23.73;51.79;98677.19;4917737;28;102066;-87
2021/08/10 10:54:26;;;;;;;;;5.00;5.00;;;;;23.72;51.76;98672.75;4913337;28;102203;-87
2021/08/10 10:56:58;;;;;;;;;4.67;4.33;;;;;23.73;51.59;98675.22;4903552;28;107980;-87
2021/08/10 10:59:29;;;;;;;;;3.67;3.33;;;;;23.73;51.72;98666.94;4899846;28;101953;-87
2021/08/10 11:02:19;;;;;;;;;3.00;3.00;;;;;23.74;51.64;98665.84;4910845;28;102074;-85
2021/08/10 11:07:44;;;;;;;;;5.33;5.00;;;;;23.75;51.71;98655.63;4836575;28;108425;-87
2021/08/10 11:10:33;;;;;;;;;4.00;3.00;;;;;23.75;51.71;98652.84;4906394;28;101949;-87
2021/08/10 11:13:00;;;;;;;;;4.33;4.00;;;;;23.76;51.86;98641.53;4888458;28;101964;-87
2021/08/10 11:15:53;;;;;;;;;4.00;4.00;;;;;23.78;51.88;98639.28;4901161;28;103085;-87
2021/08/10 11:18:22;;;;;;;;;4.67;3.00;;;;;23.78;51.71;98636.53;4927596;28;103485;-87
2021/08/10 11:20:58;;;;;;;;;4.33;3.67;;;;;23.80;51.78;98639.84;4927571;28;102181;-87
2021/08/10 11:23:28;;;;;;;;;4.00;4.00;;;;;23.80;51.72;98642.63;4918015;28;102102;-87
2021/08/10 11:25:58;;;;;;;;;4.00;4.00;;;;;23.81;51.88;98638.75;4932315;28;102093;-88
2021/08/10 11:28:38;;;;;;;;;5.00;3.67;;;;;23.83;51.94;98635.69;4930031;28;107972;-87
2021/08/10 11:31:07;;;;;;;;;4.00;4.00;;;;;23.84;51.71;98631.81;4864003;28;102332;-87
2021/08/10 11:33:38;;;;;;;;;4.00;3.33;;;;;23.85;51.73;98627.94;4910443;28;102177;-87
2021/08/10 11:36:14;;;;;;;;;3.33;3.33;;;;;23.87;51.89;98636.75;4936294;28;102137;-87
2021/08/10 11:38:44;;;;;;;;;2.67;2.00;;;;;23.89;52.02;98623.50;4922927;28;104436;-87
2021/08/10 11:41:12;;;;;;;;;5.67;5.00;;;;;23.84;51.81;98621.59;4930277;28;102167;-87